sensor_id;sensor_type;location;lat;lon;timestamp;pressure;altitude;pressure_sealevel;temperature;humidity
6132;BME280;3097;42.692;23.278;2023-08-30T00:00:56;94101.22;;;23.42;75.83
6132;BME280;3097;42.692;23.278;2023-08-30T00:03:22;94107.22;;;23.51;76.60
6132;BME280;3097;42.692;23.278;2023-08-30T00:05:47;94086.66;;;23.44;76.94
6132;BME280;3097;42.692;23.278;2023-08-30T00:08:12;94101.78;;;23.47;76.47
6132;BME280;3097;42.692;23.278;2023-08-30T00:10:43;94087.28;;;23.41;73.54
6132;BME280;3097;42.692;23.278;2023-08-30T00:13:08;94104.38;;;23.35;71.95
6132;BME280;3097;42.692;23.278;2023-08-30T00:15:34;94110.13;;;23.29;71.63
6132;BME280;3097;42.692;23.278;2023-08-30T00:17:59;94118.97;;;23.24;71.44
6132;BME280;3097;42.692;23.278;2023-08-30T00:20:24;94113.44;;;23.17;71.54
6132;BME280;3097;42.692;23.278;2023-08-30T00:22:50;94118.06;;;23.20;71.39
6132;BME280;3097;42.692;23.278;2023-08-30T00:25:15;94113.28;;;23.22;71.71
6132;BME280;3097;42.692;23.278;2023-08-30T00:27:41;94107.66;;;23.24;71.32
6132;BME280;3097;42.692;23.278;2023-08-30T00:30:07;94105.81;;;23.24;71.59
6132;BME280;3097;42.692;23.278;2023-08-30T00:32:34;94088.69;;;23.18;71.33
6132;BME280;3097;42.692;23.278;2023-08-30T00:34:59;94101.53;;;23.20;71.58
6132;BME280;3097;42.692;23.278;2023-08-30T00:37:25;94097.41;;;23.10;71.90
6132;BME280;3097;42.692;23.278;2023-08-30T00:39:50;94101.38;;;23.16;72.03
6132;BME280;3097;42.692;23.278;2023-08-30T00:42:16;94098.13;;;23.19;71.63
6132;BME280;3097;42.692;23.278;2023-08-30T00:44:41;94087.97;;;23.09;72.00
6132;BME280;3097;42.692;23.278;2023-08-30T00:47:09;94062.88;;;22.91;71.53
6132;BME280;3097;42.692;23.278;2023-08-30T00:49:35;94091.50;;;23.13;71.61
6132;BME280;3097;42.692;23.278;2023-08-30T00:52:07;94104.56;;;23.01;71.49
6132;BME280;3097;42.692;23.278;2023-08-30T00:54:34;94114.03;;;22.93;71.26
6132;BME280;3097;42.692;23.278;2023-08-30T00:57:00;94107.72;;;22.86;71.71
6132;BME280;3097;42.692;23.278;2023-08-30T00:59:29;94109.94;;;22.75;71.70
6132;BME280;3097;42.692;23.278;2023-08-30T01:01:57;94118.41;;;22.81;70.97
6132;BME280;3097;42.692;23.278;2023-08-30T01:04:23;94112.69;;;22.78;70.71
6132;BME280;3097;42.692;23.278;2023-08-30T01:06:49;94113.81;;;22.77;71.28
6132;BME280;3097;42.692;23.278;2023-08-30T01:09:15;94086.03;;;22.59;71.29
6132;BME280;3097;42.692;23.278;2023-08-30T01:11:52;94114.56;;;22.78;70.97
6132;BME280;3097;42.692;23.278;2023-08-30T01:14:37;94123.84;;;22.75;70.63
6132;BME280;3097;42.692;23.278;2023-08-30T01:17:04;94121.34;;;22.70;70.20
6132;BME280;3097;42.692;23.278;2023-08-30T01:20:00;94136.22;;;22.66;70.48
6132;BME280;3097;42.692;23.278;2023-08-30T01:22:30;94133.13;;;22.64;70.26
6132;BME280;3097;42.692;23.278;2023-08-30T01:28:04;94135.16;;;22.67;69.96
6132;BME280;3097;42.692;23.278;2023-08-30T01:30:34;94136.53;;;22.73;70.17
6132;BME280;3097;42.692;23.278;2023-08-30T01:33:03;94120.16;;;22.76;70.31
6132;BME280;3097;42.692;23.278;2023-08-30T01:35:30;94124.31;;;22.77;69.97
6132;BME280;3097;42.692;23.278;2023-08-30T01:38:02;94119.00;;;22.86;70.81
6132;BME280;3097;42.692;23.278;2023-08-30T01:40:29;94117.00;;;22.92;70.61
6132;BME280;3097;42.692;23.278;2023-08-30T01:42:56;94109.25;;;22.87;69.65
6132;BME280;3097;42.692;23.278;2023-08-30T01:45:23;94112.22;;;22.85;70.00
6132;BME280;3097;42.692;23.278;2023-08-30T01:47:49;94122.59;;;22.82;69.76
6132;BME280;3097;42.692;23.278;2023-08-30T01:50:19;94128.16;;;22.71;69.27
6132;BME280;3097;42.692;23.278;2023-08-30T01:52:45;94126.63;;;22.70;69.68
6132;BME280;3097;42.692;23.278;2023-08-30T01:55:13;94129.59;;;22.69;69.64
6132;BME280;3097;42.692;23.278;2023-08-30T01:57:39;94124.44;;;22.72;70.45
6132;BME280;3097;42.692;23.278;2023-08-30T02:00:05;94034.06;;;22.27;70.37
6132;BME280;3097;42.692;23.278;2023-08-30T02:02:31;94114.91;;;22.76;70.13
6132;BME280;3097;42.692;23.278;2023-08-30T02:04:57;94121.53;;;22.74;70.49
6132;BME280;3097;42.692;23.278;2023-08-30T02:07:28;94111.94;;;22.78;70.94
6132;BME280;3097;42.692;23.278;2023-08-30T02:10:00;94116.44;;;22.77;70.96
6132;BME280;3097;42.692;23.278;2023-08-30T02:12:37;94090.97;;;22.61;71.19
6132;BME280;3097;42.692;23.278;2023-08-30T02:15:07;94109.63;;;22.76;71.24
6132;BME280;3097;42.692;23.278;2023-08-30T02:17:35;94117.97;;;22.78;70.97
6132;BME280;3097;42.692;23.278;2023-08-30T02:20:00;94117.84;;;22.75;70.69
6132;BME280;3097;42.692;23.278;2023-08-30T02:22:26;94116.47;;;22.60;71.74
6132;BME280;3097;42.692;23.278;2023-08-30T02:24:51;94110.41;;;22.68;71.06
6132;BME280;3097;42.692;23.278;2023-08-30T02:27:17;94113.53;;;22.62;71.30
6132;BME280;3097;42.692;23.278;2023-08-30T02:29:42;94110.56;;;22.63;71.21
6132;BME280;3097;42.692;23.278;2023-08-30T02:32:08;94111.53;;;22.59;71.29
6132;BME280;3097;42.692;23.278;2023-08-30T02:34:33;94116.03;;;22.50;71.27
6132;BME280;3097;42.692;23.278;2023-08-30T02:37:00;94121.47;;;22.45;71.59
6132;BME280;3097;42.692;23.278;2023-08-30T02:39:27;94105.41;;;22.37;72.18
6132;BME280;3097;42.692;23.278;2023-08-30T02:41:52;94112.34;;;22.42;72.50
6132;BME280;3097;42.692;23.278;2023-08-30T02:44:18;94058.72;;;21.96;72.46
6132;BME280;3097;42.692;23.278;2023-08-30T02:46:43;94104.34;;;22.30;72.80
6132;BME280;3097;42.692;23.278;2023-08-30T02:49:09;94106.50;;;22.28;72.87
6132;BME280;3097;42.692;23.278;2023-08-30T02:51:36;94107.91;;;22.25;73.26
6132;BME280;3097;42.692;23.278;2023-08-30T02:54:02;94070.59;;;21.94;73.25
6132;BME280;3097;42.692;23.278;2023-08-30T02:56:27;94102.34;;;22.18;73.26
6132;BME280;3097;42.692;23.278;2023-08-30T02:58:53;94098.97;;;22.18;73.55
6132;BME280;3097;42.692;23.278;2023-08-30T03:01:18;94094.63;;;22.22;73.86
6132;BME280;3097;42.692;23.278;2023-08-30T03:03:45;94082.78;;;22.16;73.63
6132;BME280;3097;42.692;23.278;2023-08-30T03:06:11;94093.41;;;22.11;74.44
6132;BME280;3097;42.692;23.278;2023-08-30T03:08:37;94101.47;;;22.06;74.29
6132;BME280;3097;42.692;23.278;2023-08-30T03:11:10;94112.75;;;21.97;73.85
6132;BME280;3097;42.692;23.278;2023-08-30T03:13:35;94109.00;;;21.90;74.02
6132;BME280;3097;42.692;23.278;2023-08-30T03:16:09;94117.50;;;21.95;74.21
6132;BME280;3097;42.692;23.278;2023-08-30T03:18:34;94123.22;;;21.89;74.12
6132;BME280;3097;42.692;23.278;2023-08-30T03:21:00;94106.69;;;21.88;72.43
6132;BME280;3097;42.692;23.278;2023-08-30T03:23:27;94100.06;;;21.82;71.77
6132;BME280;3097;42.692;23.278;2023-08-30T03:25:52;94094.69;;;21.87;71.06
6132;BME280;3097;42.692;23.278;2023-08-30T03:28:18;94096.53;;;21.87;71.01
6132;BME280;3097;42.692;23.278;2023-08-30T03:30:43;94089.09;;;21.89;71.18
6132;BME280;3097;42.692;23.278;2023-08-30T03:33:09;94090.34;;;21.91;71.54
6132;BME280;3097;42.692;23.278;2023-08-30T03:35:34;94083.41;;;21.87;71.58
6132;BME280;3097;42.692;23.278;2023-08-30T03:38:03;94094.34;;;21.89;71.58
6132;BME280;3097;42.692;23.278;2023-08-30T03:40:29;94097.75;;;21.89;71.37
6132;BME280;3097;42.692;23.278;2023-08-30T03:42:55;94084.31;;;21.82;71.32
6132;BME280;3097;42.692;23.278;2023-08-30T03:45:20;94082.34;;;21.79;71.31
6132;BME280;3097;42.692;23.278;2023-08-30T03:47:46;94087.59;;;21.79;70.98
6132;BME280;3097;42.692;23.278;2023-08-30T03:50:11;94088.03;;;21.73;71.36
6132;BME280;3097;42.692;23.278;2023-08-30T03:52:37;94084.50;;;21.69;71.43
6132;BME280;3097;42.692;23.278;2023-08-30T03:55:02;94106.09;;;21.74;71.70
6132;BME280;3097;42.692;23.278;2023-08-30T03:57:29;94105.34;;;21.65;71.82
6132;BME280;3097;42.692;23.278;2023-08-30T03:59:57;94116.44;;;21.62;71.74
6132;BME280;3097;42.692;23.278;2023-08-30T04:02:23;94116.28;;;21.67;71.79
6132;BME280;3097;42.692;23.278;2023-08-30T04:04:48;94117.69;;;21.65;72.36
6132;BME280;3097;42.692;23.278;2023-08-30T04:07:14;94121.38;;;21.63;72.98
6132;BME280;3097;42.692;23.278;2023-08-30T04:09:41;94098.69;;;21.59;71.95
6132;BME280;3097;42.692;23.278;2023-08-30T04:12:06;94069.53;;;21.43;72.28
6132;BME280;3097;42.692;23.278;2023-08-30T04:14:32;94113.22;;;21.65;72.93
6132;BME280;3097;42.692;23.278;2023-08-30T04:16:57;94127.72;;;21.71;73.71
6132;BME280;3097;42.692;23.278;2023-08-30T04:19:23;94134.19;;;21.82;73.83
6132;BME280;3097;42.692;23.278;2023-08-30T04:21:48;94103.16;;;21.76;74.14
6132;BME280;3097;42.692;23.278;2023-08-30T04:24:14;94124.63;;;22.04;72.87
6132;BME280;3097;42.692;23.278;2023-08-30T04:26:40;94138.31;;;22.26;72.38
6132;BME280;3097;42.692;23.278;2023-08-30T04:29:06;94153.59;;;22.42;72.43
6132;BME280;3097;42.692;23.278;2023-08-30T04:31:31;94156.66;;;22.52;71.63
6132;BME280;3097;42.692;23.278;2023-08-30T04:33:57;94173.97;;;22.62;70.69
6132;BME280;3097;42.692;23.278;2023-08-30T04:36:22;94190.94;;;22.64;70.65
6132;BME280;3097;42.692;23.278;2023-08-30T04:38:48;94196.66;;;22.75;69.96
6132;BME280;3097;42.692;23.278;2023-08-30T04:41:14;94188.94;;;22.70;67.55
6132;BME280;3097;42.692;23.278;2023-08-30T04:43:39;94185.06;;;22.67;66.67
6132;BME280;3097;42.692;23.278;2023-08-30T04:46:04;94148.63;;;22.49;67.18
6132;BME280;3097;42.692;23.278;2023-08-30T04:48:30;94186.16;;;22.66;67.06
6132;BME280;3097;42.692;23.278;2023-08-30T04:51:04;94203.94;;;22.69;67.33
6132;BME280;3097;42.692;23.278;2023-08-30T04:53:29;94184.91;;;22.64;66.69
6132;BME280;3097;42.692;23.278;2023-08-30T04:55:56;94172.53;;;22.64;66.99
6132;BME280;3097;42.692;23.278;2023-08-30T04:58:21;94175.94;;;22.73;66.22
6132;BME280;3097;42.692;23.278;2023-08-30T05:00:47;94158.69;;;22.55;66.15
6132;BME280;3097;42.692;23.278;2023-08-30T05:03:12;94178.78;;;22.43;66.89
6132;BME280;3097;42.692;23.278;2023-08-30T05:05:38;94183.59;;;22.32;68.03
6132;BME280;3097;42.692;23.278;2023-08-30T05:08:03;94182.84;;;22.14;68.82
6132;BME280;3097;42.692;23.278;2023-08-30T05:10:29;94174.06;;;22.02;69.34
6132;BME280;3097;42.692;23.278;2023-08-30T05:12:55;94169.97;;;21.95;70.20
6132;BME280;3097;42.692;23.278;2023-08-30T05:15:20;94171.25;;;22.07;70.41
6132;BME280;3097;42.692;23.278;2023-08-30T05:17:46;94172.94;;;22.20;69.58
6132;BME280;3097;42.692;23.278;2023-08-30T05:20:12;94176.72;;;22.57;68.07
6132;BME280;3097;42.692;23.278;2023-08-30T05:22:37;94171.00;;;23.10;66.58
6132;BME280;3097;42.692;23.278;2023-08-30T05:25:03;94176.94;;;23.66;65.51
6132;BME280;3097;42.692;23.278;2023-08-30T05:27:28;94163.66;;;24.37;62.99
6132;BME280;3097;42.692;23.278;2023-08-30T05:29:54;94175.81;;;25.07;60.42
6132;BME280;3097;42.692;23.278;2023-08-30T05:32:21;94181.53;;;25.70;58.02
6132;BME280;3097;42.692;23.278;2023-08-30T05:34:47;94162.38;;;26.13;56.32
6132;BME280;3097;42.692;23.278;2023-08-30T05:37:12;94177.19;;;26.30;55.69
6132;BME280;3097;42.692;23.278;2023-08-30T05:39:38;94179.00;;;26.13;56.04
6132;BME280;3097;42.692;23.278;2023-08-30T05:42:04;94173.91;;;26.48;55.44
6132;BME280;3097;42.692;23.278;2023-08-30T05:44:29;94171.44;;;27.15;53.08
6132;BME280;3097;42.692;23.278;2023-08-30T05:46:55;94162.44;;;27.66;50.32
6132;BME280;3097;42.692;23.278;2023-08-30T05:49:20;94166.00;;;28.12;49.51
6132;BME280;3097;42.692;23.278;2023-08-30T05:51:47;94168.13;;;28.84;47.99
6132;BME280;3097;42.692;23.278;2023-08-30T05:54:13;94164.56;;;29.45;47.50
6132;BME280;3097;42.692;23.278;2023-08-30T05:56:39;94165.94;;;29.61;45.02
6132;BME280;3097;42.692;23.278;2023-08-30T05:59:04;94167.97;;;29.98;44.34
6132;BME280;3097;42.692;23.278;2023-08-30T06:01:30;94170.31;;;30.03;42.42
6132;BME280;3097;42.692;23.278;2023-08-30T06:03:55;94163.66;;;29.60;43.16
6132;BME280;3097;42.692;23.278;2023-08-30T06:06:21;94163.94;;;29.55;44.58
6132;BME280;3097;42.692;23.278;2023-08-30T06:08:46;94161.69;;;29.83;44.44
6132;BME280;3097;42.692;23.278;2023-08-30T06:11:12;94159.50;;;30.19;43.56
6132;BME280;3097;42.692;23.278;2023-08-30T06:13:38;94154.81;;;30.46;42.54
6132;BME280;3097;42.692;23.278;2023-08-30T06:16:03;94155.16;;;30.40;42.11
6132;BME280;3097;42.692;23.278;2023-08-30T06:18:30;94161.28;;;30.11;43.54
6132;BME280;3097;42.692;23.278;2023-08-30T06:20:56;94163.88;;;29.78;44.10
6132;BME280;3097;42.692;23.278;2023-08-30T06:23:21;94161.50;;;29.69;44.26
6132;BME280;3097;42.692;23.278;2023-08-30T06:25:56;94166.53;;;30.04;45.03
6132;BME280;3097;42.692;23.278;2023-08-30T06:28:22;94170.19;;;30.56;44.07
6132;BME280;3097;42.692;23.278;2023-08-30T06:30:48;94175.47;;;30.93;42.81
6132;BME280;3097;42.692;23.278;2023-08-30T06:33:14;94171.56;;;30.83;41.75
6132;BME280;3097;42.692;23.278;2023-08-30T06:35:39;94169.47;;;30.59;41.73
6132;BME280;3097;42.692;23.278;2023-08-30T06:38:05;94167.69;;;30.36;41.95
6132;BME280;3097;42.692;23.278;2023-08-30T06:40:31;94175.31;;;30.42;43.32
6132;BME280;3097;42.692;23.278;2023-08-30T06:42:56;94178.00;;;30.78;43.27
6132;BME280;3097;42.692;23.278;2023-08-30T06:45:22;94177.88;;;30.68;41.41
6132;BME280;3097;42.692;23.278;2023-08-30T06:47:48;94175.56;;;30.29;42.95
6132;BME280;3097;42.692;23.278;2023-08-30T06:50:14;94182.56;;;29.85;44.19
6132;BME280;3097;42.692;23.278;2023-08-30T06:52:40;94171.72;;;29.41;45.55
6132;BME280;3097;42.692;23.278;2023-08-30T06:55:05;94179.56;;;29.11;45.74
6132;BME280;3097;42.692;23.278;2023-08-30T06:57:30;94183.00;;;28.88;46.80
6132;BME280;3097;42.692;23.278;2023-08-30T06:59:56;94180.56;;;29.03;46.91
6132;BME280;3097;42.692;23.278;2023-08-30T07:02:22;94168.03;;;29.00;47.46
6132;BME280;3097;42.692;23.278;2023-08-30T07:04:47;94176.03;;;29.03;47.39
6132;BME280;3097;42.692;23.278;2023-08-30T07:07:13;94174.31;;;29.14;47.65
6132;BME280;3097;42.692;23.278;2023-08-30T07:09:39;94176.34;;;29.47;47.23
6132;BME280;3097;42.692;23.278;2023-08-30T07:12:05;94179.63;;;29.63;45.52
6132;BME280;3097;42.692;23.278;2023-08-30T07:14:31;94174.41;;;29.97;46.62
6132;BME280;3097;42.692;23.278;2023-08-30T07:16:56;94172.72;;;30.49;45.07
6132;BME280;3097;42.692;23.278;2023-08-30T07:19:21;94169.38;;;30.92;43.93
6132;BME280;3097;42.692;23.278;2023-08-30T07:21:47;94162.81;;;31.20;42.07
6132;BME280;3097;42.692;23.278;2023-08-30T07:24:13;94169.06;;;31.45;42.09
6132;BME280;3097;42.692;23.278;2023-08-30T07:26:38;94173.84;;;31.76;42.45
6132;BME280;3097;42.692;23.278;2023-08-30T07:29:04;94170.59;;;32.08;41.24
6132;BME280;3097;42.692;23.278;2023-08-30T07:31:34;94173.34;;;32.25;40.76
6132;BME280;3097;42.692;23.278;2023-08-30T07:34:00;94181.41;;;32.43;40.38
6132;BME280;3097;42.692;23.278;2023-08-30T07:36:26;94180.28;;;32.44;39.50
6132;BME280;3097;42.692;23.278;2023-08-30T07:38:53;94181.25;;;32.08;38.66
6132;BME280;3097;42.692;23.278;2023-08-30T07:41:19;94181.06;;;30.81;41.03
6132;BME280;3097;42.692;23.278;2023-08-30T07:43:44;94169.78;;;30.24;42.78
6132;BME280;3097;42.692;23.278;2023-08-30T07:46:10;94165.69;;;29.96;44.96
6132;BME280;3097;42.692;23.278;2023-08-30T07:48:35;94174.31;;;29.90;43.61
6132;BME280;3097;42.692;23.278;2023-08-30T07:51:01;94172.06;;;29.66;43.79
6132;BME280;3097;42.692;23.278;2023-08-30T07:53:26;94167.81;;;29.87;44.83
6132;BME280;3097;42.692;23.278;2023-08-30T07:55:51;94164.97;;;30.33;45.28
6132;BME280;3097;42.692;23.278;2023-08-30T07:58:17;94176.59;;;30.88;43.84
6132;BME280;3097;42.692;23.278;2023-08-30T08:00:43;94176.19;;;31.27;40.90
6132;BME280;3097;42.692;23.278;2023-08-30T08:03:08;94182.19;;;31.68;40.62
6132;BME280;3097;42.692;23.278;2023-08-30T08:05:36;94176.16;;;31.81;41.11
6132;BME280;3097;42.692;23.278;2023-08-30T08:08:01;94173.63;;;32.06;39.81
6132;BME280;3097;42.692;23.278;2023-08-30T08:10:31;94175.69;;;32.41;39.27
6132;BME280;3097;42.692;23.278;2023-08-30T08:12:56;94175.00;;;32.65;37.95
6132;BME280;3097;42.692;23.278;2023-08-30T08:15:22;94167.78;;;32.80;38.19
6132;BME280;3097;42.692;23.278;2023-08-30T08:17:47;94177.75;;;33.15;38.81
6132;BME280;3097;42.692;23.278;2023-08-30T08:20:13;94183.09;;;33.15;38.02
6132;BME280;3097;42.692;23.278;2023-08-30T08:22:39;94178.88;;;33.11;38.65
6132;BME280;3097;42.692;23.278;2023-08-30T08:25:04;94189.59;;;33.14;36.95
6132;BME280;3097;42.692;23.278;2023-08-30T08:27:31;94185.38;;;33.17;36.77
6132;BME280;3097;42.692;23.278;2023-08-30T08:29:57;94192.25;;;33.14;35.81
6132;BME280;3097;42.692;23.278;2023-08-30T08:32:23;94190.63;;;32.63;35.64
6132;BME280;3097;42.692;23.278;2023-08-30T08:34:48;94191.34;;;32.46;35.32
6132;BME280;3097;42.692;23.278;2023-08-30T08:37:14;94185.09;;;32.14;36.90
6132;BME280;3097;42.692;23.278;2023-08-30T08:39:39;94196.81;;;31.99;38.15
6132;BME280;3097;42.692;23.278;2023-08-30T08:42:05;94194.00;;;31.74;36.02
6132;BME280;3097;42.692;23.278;2023-08-30T08:44:32;94193.88;;;31.56;38.49
6132;BME280;3097;42.692;23.278;2023-08-30T08:46:59;94181.00;;;31.65;39.21
6132;BME280;3097;42.692;23.278;2023-08-30T08:49:25;94193.19;;;31.63;39.71
6132;BME280;3097;42.692;23.278;2023-08-30T08:51:55;94182.19;;;31.20;38.50
6132;BME280;3097;42.692;23.278;2023-08-30T08:54:21;94185.19;;;31.15;39.58
6132;BME280;3097;42.692;23.278;2023-08-30T08:56:47;94182.53;;;31.11;41.05
6132;BME280;3097;42.692;23.278;2023-08-30T08:59:13;94180.53;;;31.05;39.37
6132;BME280;3097;42.692;23.278;2023-08-30T09:01:40;94180.44;;;30.94;39.10
6132;BME280;3097;42.692;23.278;2023-08-30T09:04:07;94180.06;;;30.96;39.37
6132;BME280;3097;42.692;23.278;2023-08-30T09:06:34;94176.88;;;30.80;40.70
6132;BME280;3097;42.692;23.278;2023-08-30T09:09:01;94175.38;;;30.82;40.54
6132;BME280;3097;42.692;23.278;2023-08-30T09:11:26;94173.25;;;30.58;41.32
6132;BME280;3097;42.692;23.278;2023-08-30T09:13:52;94173.56;;;30.53;42.78
6132;BME280;3097;42.692;23.278;2023-08-30T09:16:17;94171.28;;;30.51;41.57
6132;BME280;3097;42.692;23.278;2023-08-30T09:18:43;94167.69;;;30.36;42.68
6132;BME280;3097;42.692;23.278;2023-08-30T09:21:09;94158.84;;;30.29;42.49
6132;BME280;3097;42.692;23.278;2023-08-30T09:23:35;94145.13;;;29.93;41.70
6132;BME280;3097;42.692;23.278;2023-08-30T09:26:01;94151.22;;;29.68;42.66
6132;BME280;3097;42.692;23.278;2023-08-30T09:28:27;94159.09;;;29.60;43.71
6132;BME280;3097;42.692;23.278;2023-08-30T09:30:53;94164.22;;;29.46;44.79
6132;BME280;3097;42.692;23.278;2023-08-30T09:33:22;94158.13;;;29.46;43.63
6132;BME280;3097;42.692;23.278;2023-08-30T09:35:47;94157.66;;;29.40;43.73
6132;BME280;3097;42.692;23.278;2023-08-30T09:38:17;94163.97;;;29.32;45.30
6132;BME280;3097;42.692;23.278;2023-08-30T09:41:02;94165.44;;;29.30;44.82
6132;BME280;3097;42.692;23.278;2023-08-30T09:43:29;94158.84;;;29.20;45.09
6132;BME280;3097;42.692;23.278;2023-08-30T09:45:54;94146.03;;;28.99;45.90
6132;BME280;3097;42.692;23.278;2023-08-30T09:48:21;94155.53;;;29.00;46.73
6132;BME280;3097;42.692;23.278;2023-08-30T09:50:51;94145.47;;;29.13;46.37
6132;BME280;3097;42.692;23.278;2023-08-30T09:53:20;94146.81;;;29.26;45.80
6132;BME280;3097;42.692;23.278;2023-08-30T09:55:48;94148.19;;;29.39;44.02
6132;BME280;3097;42.692;23.278;2023-08-30T09:58:14;94131.09;;;29.14;44.35
6132;BME280;3097;42.692;23.278;2023-08-30T10:00:41;94137.28;;;28.99;44.91
6132;BME280;3097;42.692;23.278;2023-08-30T10:03:08;94125.22;;;28.78;46.32
6132;BME280;3097;42.692;23.278;2023-08-30T10:05:35;94131.56;;;28.97;45.37
6132;BME280;3097;42.692;23.278;2023-08-30T10:08:01;94133.56;;;29.03;44.22
6132;BME280;3097;42.692;23.278;2023-08-30T10:10:27;94135.28;;;29.15;45.36
6132;BME280;3097;42.692;23.278;2023-08-30T10:12:55;94144.63;;;29.32;43.63
6132;BME280;3097;42.692;23.278;2023-08-30T10:15:22;94129.72;;;29.23;43.65
6132;BME280;3097;42.692;23.278;2023-08-30T10:17:52;94124.69;;;29.18;44.51
6132;BME280;3097;42.692;23.278;2023-08-30T10:20:19;94105.66;;;29.13;43.74
6132;BME280;3097;42.692;23.278;2023-08-30T10:22:45;94123.53;;;29.16;43.35
6132;BME280;3097;42.692;23.278;2023-08-30T10:25:24;94124.91;;;29.06;43.92
6132;BME280;3097;42.692;23.278;2023-08-30T10:27:50;94122.59;;;29.05;44.88
6132;BME280;3097;42.692;23.278;2023-08-30T10:30:22;94124.66;;;29.15;44.45
6132;BME280;3097;42.692;23.278;2023-08-30T10:32:48;94127.44;;;29.25;44.37
6132;BME280;3097;42.692;23.278;2023-08-30T10:35:15;94107.09;;;29.07;43.61
6132;BME280;3097;42.692;23.278;2023-08-30T10:37:42;94121.94;;;29.11;43.93
6132;BME280;3097;42.692;23.278;2023-08-30T10:40:09;94116.22;;;29.09;44.19
6132;BME280;3097;42.692;23.278;2023-08-30T10:42:35;94124.06;;;29.02;44.57
6132;BME280;3097;42.692;23.278;2023-08-30T10:47:28;94105.03;;;28.97;44.38
6132;BME280;3097;42.692;23.278;2023-08-30T10:49:59;94111.06;;;28.94;44.78
6132;BME280;3097;42.692;23.278;2023-08-30T10:52:26;94103.59;;;29.03;45.75
6132;BME280;3097;42.692;23.278;2023-08-30T10:54:51;94104.31;;;29.00;44.80
6132;BME280;3097;42.692;23.278;2023-08-30T10:57:26;94100.75;;;29.15;44.64
6132;BME280;3097;42.692;23.278;2023-08-30T11:00:09;94098.44;;;29.36;42.90
6132;BME280;3097;42.692;23.278;2023-08-30T11:02:36;94101.94;;;29.44;40.05
6132;BME280;3097;42.692;23.278;2023-08-30T11:05:03;94102.75;;;29.48;40.30
6132;BME280;3097;42.692;23.278;2023-08-30T11:07:29;94101.47;;;29.64;38.89
6132;BME280;3097;42.692;23.278;2023-08-30T11:09:55;94093.97;;;29.74;38.93
6132;BME280;3097;42.692;23.278;2023-08-30T11:12:21;94110.81;;;29.85;39.51
6132;BME280;3097;42.692;23.278;2023-08-30T11:14:51;94100.00;;;30.00;37.81
6132;BME280;3097;42.692;23.278;2023-08-30T11:17:18;94102.38;;;30.06;36.88
6132;BME280;3097;42.692;23.278;2023-08-30T11:19:44;94089.19;;;30.16;33.34
6132;BME280;3097;42.692;23.278;2023-08-30T11:22:09;94095.16;;;30.06;35.50
6132;BME280;3097;42.692;23.278;2023-08-30T11:24:35;94095.94;;;30.10;33.71
6132;BME280;3097;42.692;23.278;2023-08-30T11:27:01;94068.97;;;30.08;33.73
6132;BME280;3097;42.692;23.278;2023-08-30T11:29:27;94085.81;;;30.23;32.42
6132;BME280;3097;42.692;23.278;2023-08-30T11:31:52;94080.56;;;30.30;32.09
6132;BME280;3097;42.692;23.278;2023-08-30T11:34:21;94071.88;;;30.33;32.31
6132;BME280;3097;42.692;23.278;2023-08-30T11:36:50;94061.28;;;30.36;30.99
6132;BME280;3097;42.692;23.278;2023-08-30T11:39:18;94065.84;;;30.36;32.43
6132;BME280;3097;42.692;23.278;2023-08-30T11:41:44;94063.59;;;30.42;32.16
6132;BME280;3097;42.692;23.278;2023-08-30T11:44:09;94059.75;;;30.35;31.85
6132;BME280;3097;42.692;23.278;2023-08-30T11:46:35;94043.31;;;30.26;31.82
6132;BME280;3097;42.692;23.278;2023-08-30T11:49:01;94057.50;;;30.41;33.03
6132;BME280;3097;42.692;23.278;2023-08-30T11:51:28;94055.22;;;30.39;32.89
6132;BME280;3097;42.692;23.278;2023-08-30T11:53:55;94052.63;;;30.47;31.24
6132;BME280;3097;42.692;23.278;2023-08-30T11:56:21;94062.13;;;30.44;30.34
6132;BME280;3097;42.692;23.278;2023-08-30T11:58:46;94058.22;;;30.34;30.60
6132;BME280;3097;42.692;23.278;2023-08-30T12:01:12;94054.38;;;30.32;32.24
6132;BME280;3097;42.692;23.278;2023-08-30T12:03:38;94056.31;;;30.35;32.84
6132;BME280;3097;42.692;23.278;2023-08-30T12:06:09;94049.13;;;30.35;33.35
6132;BME280;3097;42.692;23.278;2023-08-30T12:08:35;94042.31;;;30.42;32.84
6132;BME280;3097;42.692;23.278;2023-08-30T12:11:01;94023.69;;;30.42;31.32
6132;BME280;3097;42.692;23.278;2023-08-30T12:13:32;94049.34;;;30.60;30.63
6132;BME280;3097;42.692;23.278;2023-08-30T12:15:59;94042.81;;;30.54;30.98
6132;BME280;3097;42.692;23.278;2023-08-30T12:18:26;94039.44;;;30.57;29.65
6132;BME280;3097;42.692;23.278;2023-08-30T12:20:55;94037.06;;;30.49;30.58
6132;BME280;3097;42.692;23.278;2023-08-30T12:23:22;94035.94;;;30.50;29.89
6132;BME280;3097;42.692;23.278;2023-08-30T12:28:23;94036.28;;;30.48;30.44
6132;BME280;3097;42.692;23.278;2023-08-30T12:30:48;94023.44;;;30.50;30.13
6132;BME280;3097;42.692;23.278;2023-08-30T12:33:16;94014.66;;;30.50;29.36
6132;BME280;3097;42.692;23.278;2023-08-30T12:35:41;94029.50;;;30.51;29.47
6132;BME280;3097;42.692;23.278;2023-08-30T12:38:07;94030.72;;;30.60;27.73
6132;BME280;3097;42.692;23.278;2023-08-30T12:40:32;94015.88;;;30.56;28.34
6132;BME280;3097;42.692;23.278;2023-08-30T12:42:58;94013.66;;;30.65;26.97
6132;BME280;3097;42.692;23.278;2023-08-30T12:45:23;94006.03;;;30.63;27.60
6132;BME280;3097;42.692;23.278;2023-08-30T12:47:48;94003.78;;;30.65;27.19
6132;BME280;3097;42.692;23.278;2023-08-30T12:50:14;94013.66;;;30.65;28.02
6132;BME280;3097;42.692;23.278;2023-08-30T12:52:39;93999.94;;;30.63;27.94
6132;BME280;3097;42.692;23.278;2023-08-30T12:55:05;94000.31;;;30.61;27.58
6132;BME280;3097;42.692;23.278;2023-08-30T12:57:30;94001.13;;;30.65;28.02
6132;BME280;3097;42.692;23.278;2023-08-30T12:59:56;93996.22;;;30.71;28.06
6132;BME280;3097;42.692;23.278;2023-08-30T13:02:21;93998.09;;;30.67;27.61
6132;BME280;3097;42.692;23.278;2023-08-30T13:04:47;93998.50;;;30.72;27.35
6132;BME280;3097;42.692;23.278;2023-08-30T13:07:12;93933.47;;;30.22;27.55
6132;BME280;3097;42.692;23.278;2023-08-30T13:09:37;94006.84;;;30.71;27.83
6132;BME280;3097;42.692;23.278;2023-08-30T13:12:03;93991.25;;;30.66;27.66
6132;BME280;3097;42.692;23.278;2023-08-30T13:14:29;94003.47;;;30.74;26.36